createdAt,value
2017-09-19T00:01:08.375Z,41.80
2017-09-19T00:03:37.856Z,40.57
2017-09-19T00:06:06.199Z,42.40
2017-09-19T00:08:34.495Z,39.43
2017-09-19T00:11:03.551Z,37.20
2017-09-19T00:13:31.924Z,38.53
2017-09-19T00:16:00.995Z,38.40
2017-09-19T00:18:30.650Z,43.13
2017-09-19T00:20:58.871Z,42.97
2017-09-19T00:23:27.930Z,39.10
2017-09-19T00:25:56.242Z,43.87
2017-09-19T00:28:24.599Z,46.97
2017-09-19T00:30:52.895Z,46.60
2017-09-19T00:33:22.543Z,48.03
2017-09-19T00:35:51.156Z,46.20
2017-09-19T00:38:20.798Z,46.20
2017-09-19T00:40:48.963Z,44.63
2017-09-19T00:43:17.364Z,41.83
2017-09-19T00:45:46.077Z,45.20
2017-09-19T00:48:15.571Z,49.87
2017-09-19T00:50:44.334Z,43.73
2017-09-19T00:53:13.643Z,45.03
2017-09-19T00:55:41.984Z,45.80
2017-09-19T00:58:11.135Z,48.13
2017-09-19T01:00:39.824Z,46.13
2017-09-19T01:03:08.115Z,44.33
2017-09-19T01:05:37.956Z,46.60
2017-09-19T01:08:06.122Z,49.60
2017-09-19T01:10:34.414Z,50.67
2017-09-19T01:13:02.751Z,46.93
2017-09-19T01:15:31.046Z,45.83
2017-09-19T01:18:00.851Z,49.57
2017-09-19T01:20:29.986Z,44.40
2017-09-19T01:22:58.289Z,46.70
2017-09-19T01:25:26.987Z,52.03
2017-09-19T01:27:56.132Z,52.30
2017-09-19T01:30:24.430Z,50.20
2017-09-19T01:32:53.492Z,47.53
2017-09-19T01:35:22.608Z,48.13
2017-09-19T01:37:50.903Z,51.03
2017-09-19T01:40:19.971Z,45.20
2017-09-19T01:42:48.325Z,46.47
2017-09-19T01:45:16.653Z,51.93
2017-09-19T01:47:44.969Z,49.80
2017-09-19T01:50:14.488Z,54.97
2017-09-19T01:52:43.199Z,54.83
2017-09-19T01:55:11.535Z,48.53
2017-09-19T01:57:40.671Z,49.73
2017-09-19T02:00:08.971Z,46.40
2017-09-19T02:02:37.476Z,44.90
2017-09-19T02:05:05.932Z,45.87
2017-09-19T02:07:35.119Z,46.20
2017-09-19T02:10:03.802Z,44.67
2017-09-19T02:12:32.164Z,47.87
2017-09-19T02:15:00.463Z,50.43
2017-09-19T02:17:28.773Z,53.33
2017-09-19T02:19:57.114Z,49.30
2017-09-19T02:22:25.794Z,50.23
2017-09-19T02:24:54.086Z,51.50
2017-09-19T02:27:22.683Z,48.57
2017-09-19T02:29:52.106Z,45.40
2017-09-19T02:35:18.851Z,48.10
2017-09-19T02:38:04.767Z,45.03
2017-09-19T02:41:00.191Z,46.73
2017-09-19T02:43:30.283Z,49.63
2017-09-19T02:45:58.989Z,54.30
2017-09-19T02:48:27.348Z,52.33
2017-09-19T02:50:55.640Z,51.87
2017-09-19T02:53:41.782Z,52.10
2017-09-19T02:56:34.463Z,55.63
2017-09-19T02:59:26.904Z,54.47
2017-09-19T03:02:19.099Z,55.57
2017-09-19T03:04:53.751Z,59.50
2017-09-19T03:07:23.547Z,56.83
2017-09-19T03:09:52.602Z,53.60
2017-09-19T03:12:20.979Z,49.70
2017-09-19T03:14:50.030Z,56.73
2017-09-19T03:17:18.322Z,59.13
2017-09-19T03:19:47.459Z,51.60
2017-09-19T03:22:16.512Z,59.00
2017-09-19T03:24:44.817Z,56.83
2017-09-19T03:27:13.163Z,56.23
2017-09-19T03:29:41.461Z,57.87
2017-09-19T03:32:09.749Z,49.20
2017-09-19T03:34:38.847Z,53.77
2017-09-19T03:37:07.150Z,58.97
2017-09-19T03:39:36.943Z,44.30
2017-09-19T03:42:05.282Z,49.03
2017-09-19T03:44:33.570Z,52.33
2017-09-19T03:47:01.859Z,53.03
2017-09-19T03:49:31.352Z,53.47
2017-09-19T03:52:00.995Z,48.70
2017-09-19T03:54:29.571Z,57.83
2017-09-19T03:56:57.927Z,45.87
2017-09-19T03:59:26.603Z,52.00
2017-09-19T04:01:54.892Z,55.97
2017-09-19T04:04:24.383Z,59.50
2017-09-19T04:06:52.662Z,55.63
2017-09-19T04:09:21.718Z,58.87
2017-09-19T04:11:51.244Z,52.00
2017-09-19T04:14:19.531Z,55.17
2017-09-19T04:16:47.818Z,59.40
2017-09-19T04:19:16.165Z,62.30
2017-09-19T04:21:44.859Z,60.17
2017-09-19T04:24:13.179Z,62.47
2017-09-19T04:26:41.595Z,62.10
2017-09-19T04:29:09.904Z,57.77
2017-09-19T04:31:38.195Z,57.27
2017-09-19T04:34:07.432Z,59.77
2017-09-19T04:36:36.492Z,59.97
2017-09-19T04:39:04.781Z,55.10
2017-09-19T04:41:34.623Z,68.50
2017-09-19T04:44:02.910Z,50.63
2017-09-19T04:46:32.340Z,53.17
2017-09-19T04:49:00.703Z,58.93
2017-09-19T04:51:29.015Z,56.03
2017-09-19T04:53:57.298Z,62.03
2017-09-19T04:56:26.779Z,55.03
2017-09-19T04:58:55.458Z,53.70
2017-09-19T05:01:26.311Z,56.47
2017-09-19T05:03:56.158Z,52.23
2017-09-19T05:06:25.212Z,58.20
2017-09-19T05:08:53.494Z,55.47
2017-09-19T05:11:21.850Z,62.50
2017-09-19T05:13:50.200Z,57.53
2017-09-19T05:16:19.252Z,53.87
2017-09-19T05:18:48.372Z,61.10
2017-09-19T05:21:17.795Z,52.50
2017-09-19T05:23:46.847Z,59.10
2017-09-19T05:26:15.221Z,53.30
2017-09-19T05:28:45.028Z,54.80
2017-09-19T05:31:14.096Z,61.27
2017-09-19T05:33:42.853Z,51.07
2017-09-19T05:36:11.143Z,53.10
2017-09-19T05:38:40.576Z,50.37
2017-09-19T05:41:09.684Z,55.67
2017-09-19T05:43:38.760Z,61.07
2017-09-19T05:46:07.050Z,48.53
2017-09-19T05:48:36.156Z,50.90
2017-09-19T05:51:04.830Z,54.07
2017-09-19T05:53:33.118Z,57.70
2017-09-19T05:56:01.460Z,56.13
2017-09-19T05:58:29.758Z,52.43
2017-09-19T06:00:58.046Z,57.77
2017-09-19T06:03:26.387Z,53.60
2017-09-19T06:05:54.680Z,52.10
2017-09-19T06:08:24.096Z,52.03
2017-09-19T06:10:52.440Z,49.67
2017-09-19T06:13:22.090Z,50.27
2017-09-19T06:15:51.383Z,49.90
2017-09-19T06:18:21.248Z,48.50
2017-09-19T06:20:49.535Z,57.10
2017-09-19T06:23:19.331Z,51.27
2017-09-19T06:25:47.678Z,48.60
2017-09-19T06:28:16.735Z,50.53
2017-09-19T06:30:45.042Z,46.50
2017-09-19T06:33:13.382Z,44.60
2017-09-19T06:35:41.671Z,46.10
2017-09-19T06:38:11.487Z,46.73
2017-09-19T06:40:41.334Z,38.47
2017-09-19T06:43:09.624Z,40.60
2017-09-19T06:45:37.934Z,43.93
2017-09-19T06:48:06.660Z,43.47
2017-09-19T06:50:36.446Z,42.83
2017-09-19T06:53:04.731Z,44.83
2017-09-19T06:55:33.083Z,45.73
2017-09-19T06:58:02.714Z,40.37
2017-09-19T07:00:32.011Z,36.23
2017-09-19T07:03:01.131Z,37.00
2017-09-19T07:05:29.425Z,40.50
2017-09-19T07:07:58.474Z,40.33
2017-09-19T07:10:27.962Z,42.57
2017-09-19T07:12:56.645Z,39.40
2017-09-19T07:15:24.932Z,42.83
2017-09-19T07:17:54.827Z,40.63
2017-09-19T07:20:23.888Z,47.27
2017-09-19T07:22:53.683Z,43.80
2017-09-19T07:25:22.020Z,46.80
2017-09-19T07:27:51.449Z,50.77
2017-09-19T07:30:20.504Z,53.60
2017-09-19T07:32:48.855Z,56.33
2017-09-19T07:35:18.279Z,55.50
2017-09-19T07:37:47.918Z,53.00
2017-09-19T07:40:16.536Z,45.87
2017-09-19T07:42:44.827Z,47.60
2017-09-19T07:45:13.136Z,52.63
2017-09-19T07:47:41.484Z,53.57
2017-09-19T07:50:10.559Z,50.87
2017-09-19T07:52:38.864Z,46.53
2017-09-19T07:55:07.193Z,46.83
2017-09-19T07:57:36.612Z,52.43
2017-09-19T08:00:04.923Z,49.00
2017-09-19T08:02:33.280Z,53.00
2017-09-19T08:05:03.070Z,50.57
2017-09-19T08:07:31.363Z,54.80
2017-09-19T08:09:59.719Z,52.13
2017-09-19T08:12:28.014Z,50.37
2017-09-19T08:14:56.300Z,53.37
2017-09-19T08:17:26.139Z,45.17
2017-09-19T08:19:55.779Z,42.50
2017-09-19T08:22:25.295Z,52.13
2017-09-19T08:24:53.922Z,55.00
2017-09-19T08:27:22.207Z,52.53
2017-09-19T08:29:51.636Z,57.90
2017-09-19T08:32:20.362Z,54.87
2017-09-19T08:34:50.013Z,62.83
2017-09-19T08:37:18.567Z,60.63
2017-09-19T08:39:46.924Z,58.10
2017-09-19T08:42:15.236Z,51.07
2017-09-19T08:44:43.531Z,52.37
2017-09-19T08:47:11.896Z,49.13
2017-09-19T08:49:40.963Z,45.97
2017-09-19T08:52:10.020Z,50.17
2017-09-19T08:54:38.376Z,51.23
2017-09-19T08:57:07.803Z,48.90
2017-09-19T08:59:36.087Z,51.27
2017-09-19T09:02:04.419Z,45.77
2017-09-19T09:04:34.058Z,44.57
2017-09-19T09:07:03.355Z,42.17
2017-09-19T09:09:32.112Z,36.37
2017-09-19T09:12:01.899Z,30.77
2017-09-19T09:14:30.201Z,27.30
2017-09-19T09:16:58.559Z,27.40
2017-09-19T09:19:26.851Z,30.00
2017-09-19T09:21:56.646Z,32.80
2017-09-19T09:24:26.487Z,27.80
2017-09-19T09:26:54.771Z,24.83
2017-09-19T09:29:23.054Z,31.70
2017-09-19T09:31:51.419Z,27.83
2017-09-19T09:34:19.698Z,26.37
2017-09-19T09:36:47.992Z,24.93
2017-09-19T09:39:16.351Z,22.20
2017-09-19T09:41:46.163Z,21.47
2017-09-19T09:44:15.839Z,25.43
2017-09-19T09:46:44.452Z,21.80
2017-09-19T09:49:12.747Z,27.10
2017-09-19T09:51:41.937Z,18.27
2017-09-19T09:54:11.758Z,20.40
2017-09-19T09:56:40.064Z,19.90
2017-09-19T09:59:08.384Z,18.83
2017-09-19T10:01:36.727Z,19.27
2017-09-19T10:04:05.015Z,24.50
2017-09-19T10:06:33.332Z,22.57
2017-09-19T10:09:02.424Z,22.97
2017-09-19T10:11:30.737Z,20.33
2017-09-19T10:13:59.058Z,21.10
2017-09-19T10:16:27.416Z,23.67
2017-09-19T10:18:55.699Z,23.93
2017-09-19T10:21:23.986Z,24.00
2017-09-19T10:23:52.713Z,25.33
2017-09-19T10:26:22.512Z,26.40
2017-09-19T10:28:51.568Z,24.27
2017-09-19T10:31:20.687Z,19.67
2017-09-19T10:33:49.738Z,22.83
2017-09-19T10:36:19.374Z,19.93
2017-09-19T10:38:48.934Z,19.77
2017-09-19T10:41:17.863Z,18.13
2017-09-19T10:43:46.815Z,20.63
2017-09-19T10:46:15.148Z,21.20
2017-09-19T10:48:43.440Z,26.00
2017-09-19T10:51:12.500Z,23.50
2017-09-19T10:53:40.853Z,31.33
2017-09-19T10:56:09.134Z,26.00
2017-09-19T10:58:37.436Z,28.57
2017-09-19T11:01:05.759Z,24.67
2017-09-19T11:03:34.046Z,21.33
2017-09-19T11:06:03.843Z,24.90
2017-09-19T11:08:32.959Z,28.97
2017-09-19T11:11:01.650Z,26.20
2017-09-19T11:13:30.723Z,25.10
2017-09-19T11:15:59.835Z,22.63
2017-09-19T11:18:28.122Z,18.00
2017-09-19T11:20:56.407Z,19.07
2017-09-19T11:23:25.515Z,17.23
2017-09-19T11:25:54.208Z,20.30
2017-09-19T11:28:22.504Z,17.57
2017-09-19T11:30:50.850Z,14.60
2017-09-19T11:33:19.140Z,15.10
2017-09-19T11:35:47.439Z,15.90
2017-09-19T11:38:16.928Z,13.00
2017-09-19T11:40:45.218Z,13.03
2017-09-19T11:43:13.549Z,14.60
2017-09-19T11:45:41.915Z,12.50
2017-09-19T11:48:11.730Z,16.30
2017-09-19T11:50:41.161Z,12.60
2017-09-19T11:53:10.314Z,13.47
2017-09-19T11:55:39.370Z,15.30
2017-09-19T11:58:07.659Z,10.50
2017-09-19T12:00:35.999Z,11.93
2017-09-19T12:03:05.794Z,13.03
2017-09-19T12:05:34.083Z,19.83
2017-09-19T12:08:02.429Z,13.93
2017-09-19T12:10:30.731Z,14.87
2017-09-19T12:12:59.032Z,16.67
2017-09-19T12:15:28.518Z,19.80
2017-09-19T12:17:56.799Z,17.10
2017-09-19T12:20:25.916Z,16.97
2017-09-19T12:22:55.875Z,15.47
2017-09-19T12:25:25.391Z,17.97
2017-09-19T12:27:53.556Z,16.87
2017-09-19T12:30:21.906Z,17.27
2017-09-19T12:32:50.963Z,16.80
2017-09-19T12:35:19.256Z,14.30
2017-09-19T12:37:50.199Z,13.77
2017-09-19T12:40:19.830Z,13.83
2017-09-19T12:42:49.508Z,12.43
2017-09-19T12:45:19.195Z,14.20
2017-09-19T12:47:47.367Z,16.87
2017-09-19T12:50:16.070Z,15.43
2017-09-19T12:52:44.430Z,20.13
2017-09-19T12:55:12.728Z,20.60
2017-09-19T12:57:41.040Z,17.30
2017-09-19T13:00:10.540Z,19.37
2017-09-19T13:02:38.839Z,19.20
2017-09-19T13:05:07.526Z,18.87
2017-09-19T13:07:37.388Z,19.10
2017-09-19T13:10:05.684Z,21.40
2017-09-19T13:12:34.743Z,23.30
2017-09-19T13:15:03.071Z,22.03
2017-09-19T13:17:32.127Z,20.63
2017-09-19T13:20:01.187Z,24.10
2017-09-19T13:22:30.293Z,23.53
2017-09-19T13:24:59.377Z,22.43
2017-09-19T13:27:27.667Z,26.00
2017-09-19T13:29:56.002Z,21.63
2017-09-19T13:32:36.066Z,19.27
2017-09-19T13:35:04.390Z,23.00
2017-09-19T13:37:32.687Z,19.50
2017-09-19T13:40:00.981Z,22.10
2017-09-19T13:42:30.466Z,18.13
2017-09-19T13:44:58.763Z,15.70
2017-09-19T13:47:27.054Z,17.50
2017-09-19T13:49:55.389Z,16.93
2017-09-19T13:52:24.452Z,16.83
2017-09-19T13:54:53.510Z,16.33
2017-09-19T13:57:21.838Z,13.77
2017-09-19T13:59:50.890Z,15.53
2017-09-19T14:02:19.183Z,13.30
2017-09-19T14:04:48.886Z,14.10
2017-09-19T14:07:17.447Z,14.10
2017-09-19T14:09:45.748Z,14.10
2017-09-19T14:12:15.754Z,15.00
2017-09-19T14:14:44.069Z,12.57
2017-09-19T14:17:12.366Z,14.40
2017-09-19T14:19:40.739Z,14.57
2017-09-19T14:22:09.035Z,15.40
2017-09-19T14:24:38.661Z,15.93
2017-09-19T14:27:06.911Z,15.93
2017-09-19T14:29:35.195Z,14.37
2017-09-19T14:32:04.986Z,14.90
2017-09-19T14:34:33.311Z,14.57
2017-09-19T14:37:01.607Z,18.47
2017-09-19T14:39:29.920Z,17.00
2017-09-19T14:41:59.052Z,17.97
2017-09-19T14:44:27.330Z,17.77
2017-09-19T14:46:57.139Z,20.13
2017-09-19T14:49:25.475Z,20.17
2017-09-19T14:51:53.759Z,19.00
2017-09-19T14:54:22.043Z,17.93
2017-09-19T14:56:51.513Z,20.53
2017-09-19T14:59:19.804Z,17.93
2017-09-19T15:01:48.092Z,19.57
2017-09-19T15:04:16.468Z,18.57
2017-09-19T15:06:44.764Z,19.80
2017-09-19T15:09:13.073Z,19.60
2017-09-19T15:11:42.763Z,19.43
2017-09-19T15:14:12.276Z,17.30
2017-09-19T15:16:41.210Z,21.23
2017-09-19T15:19:10.927Z,23.00
2017-09-19T15:21:40.475Z,19.03
2017-09-19T15:24:08.639Z,20.37
2017-09-19T15:26:37.752Z,18.43
2017-09-19T15:29:06.807Z,17.27
2017-09-19T15:31:36.443Z,17.33
2017-09-19T15:34:05.058Z,20.43
2017-09-19T15:36:33.752Z,16.03
2017-09-19T15:39:02.040Z,19.33
2017-09-19T15:41:30.417Z,15.13
2017-09-19T15:43:59.857Z,16.73
2017-09-19T15:46:29.517Z,15.17
2017-09-19T15:48:58.498Z,16.57
2017-09-19T15:51:26.788Z,15.50
2017-09-19T15:53:56.586Z,15.10
2017-09-19T15:56:26.266Z,18.83
2017-09-19T15:58:55.774Z,15.90
2017-09-19T16:01:25.282Z,15.67
2017-09-19T16:03:54.255Z,14.90
2017-09-19T16:06:22.538Z,15.13
2017-09-19T16:08:50.827Z,14.37
2017-09-19T16:11:19.155Z,19.83
2017-09-19T16:13:47.447Z,13.70
2017-09-19T16:16:15.755Z,15.80
2017-09-19T16:18:45.483Z,15.30
2017-09-19T16:21:14.052Z,13.90
2017-09-19T16:23:42.343Z,12.77
2017-09-19T16:26:11.829Z,12.93
2017-09-19T16:28:40.165Z,14.30
2017-09-19T16:31:08.460Z,14.70
2017-09-19T16:33:36.786Z,13.63
2017-09-19T16:36:05.071Z,13.43
2017-09-19T16:38:34.867Z,12.60
2017-09-19T16:41:03.203Z,14.13
2017-09-19T16:43:31.512Z,14.77
2017-09-19T16:46:00.580Z,12.93
2017-09-19T16:48:28.948Z,13.90
2017-09-19T16:50:57.235Z,12.63
2017-09-19T16:53:26.663Z,14.30
2017-09-19T16:55:55.008Z,15.03
2017-09-19T16:58:23.295Z,14.13
2017-09-19T17:00:52.433Z,14.57
2017-09-19T17:03:21.184Z,13.90
2017-09-19T17:05:49.479Z,14.33
2017-09-19T17:08:17.766Z,13.80
2017-09-19T17:10:46.173Z,15.20
2017-09-19T17:13:15.823Z,16.27
2017-09-19T17:15:44.825Z,15.50
2017-09-19T17:18:14.717Z,16.77
2017-09-19T17:20:43.003Z,15.53
2017-09-19T17:23:11.318Z,16.17
2017-09-19T17:25:41.179Z,16.33
2017-09-19T17:28:09.545Z,19.23
2017-09-19T17:30:38.598Z,17.63
2017-09-19T17:33:06.984Z,18.97
2017-09-19T17:35:36.795Z,18.23
2017-09-19T17:38:05.094Z,19.00
2017-09-19T17:40:33.426Z,15.70
2017-09-19T17:43:01.723Z,15.30
2017-09-19T17:45:31.485Z,16.73
2017-09-19T17:47:59.734Z,17.63
2017-09-19T17:50:29.385Z,14.57
2017-09-19T17:52:57.939Z,18.73
2017-09-19T17:55:26.275Z,20.33
2017-09-19T17:57:54.589Z,19.37
2017-09-19T18:00:23.223Z,19.87
2017-09-19T18:02:51.971Z,19.87
2017-09-19T18:05:20.268Z,20.20
2017-09-19T18:07:49.326Z,23.80
2017-09-19T18:10:19.255Z,20.10
2017-09-19T18:12:47.552Z,22.73
2017-09-19T18:15:16.615Z,23.97
2017-09-19T18:17:44.970Z,23.10
2017-09-19T18:20:13.294Z,23.90
2017-09-19T18:22:42.733Z,20.70
2017-09-19T18:25:11.123Z,20.40
2017-09-19T18:27:39.803Z,22.60
2017-09-19T18:30:09.458Z,33.10
2017-09-19T18:32:37.713Z,24.83
2017-09-19T18:35:06.007Z,22.40
2017-09-19T18:37:35.812Z,24.33
2017-09-19T18:40:04.703Z,23.00
2017-09-19T18:42:33.764Z,25.00
2017-09-19T18:45:02.849Z,27.73
2017-09-19T18:47:31.988Z,27.37
2017-09-19T18:50:00.273Z,24.23
2017-09-19T18:52:29.617Z,25.03
2017-09-19T18:54:58.028Z,26.33
2017-09-19T18:57:27.143Z,25.10
2017-09-19T18:59:56.584Z,23.83
2017-09-19T19:02:24.924Z,24.80
2017-09-19T19:04:54.572Z,27.73
2017-09-19T19:07:23.513Z,25.50
2017-09-19T19:09:51.906Z,28.20
2017-09-19T19:12:22.001Z,25.83
2017-09-19T19:14:50.294Z,25.53
2017-09-19T19:17:19.803Z,24.83
2017-09-19T19:19:48.140Z,25.87
2017-09-19T19:22:17.622Z,25.50
2017-09-19T19:24:47.343Z,28.27
2017-09-19T19:27:15.513Z,24.80
2017-09-19T19:29:44.040Z,25.10
2017-09-19T19:32:12.420Z,26.93
2017-09-19T19:34:41.574Z,27.13
2017-09-19T19:37:10.292Z,27.20
2017-09-19T19:39:38.738Z,23.93
2017-09-19T19:42:07.140Z,27.60
2017-09-19T19:44:36.575Z,22.23
2017-09-19T19:47:04.958Z,25.33
2017-09-19T19:49:33.256Z,30.13
2017-09-19T19:52:01.572Z,28.70
2017-09-19T19:54:29.943Z,28.17
2017-09-19T19:56:58.235Z,31.73
2017-09-19T19:59:27.376Z,29.00
2017-09-19T20:01:55.944Z,30.23
2017-09-19T20:04:24.251Z,26.97
2017-09-19T20:06:52.551Z,26.47
2017-09-19T20:09:22.408Z,25.87
2017-09-19T20:11:50.690Z,30.57
2017-09-19T20:14:20.322Z,29.87
2017-09-19T20:16:50.076Z,29.87
2017-09-19T20:19:19.722Z,32.13
2017-09-19T20:21:48.291Z,31.40
2017-09-19T20:24:16.722Z,30.90
2017-09-19T20:26:45.430Z,33.07
2017-09-19T20:29:14.572Z,31.53
2017-09-19T20:31:44.296Z,31.20
2017-09-19T20:34:12.891Z,31.13
2017-09-19T20:36:41.200Z,25.50
2017-09-19T20:39:09.581Z,28.03
2017-09-19T20:41:37.860Z,30.43
2017-09-19T20:44:08.596Z,28.83
2017-09-19T20:46:36.947Z,34.33
2017-09-19T20:49:05.255Z,38.13
2017-09-19T20:51:34.683Z,38.50
2017-09-19T20:54:04.163Z,34.00
2017-09-19T20:56:33.582Z,36.40
2017-09-19T20:59:01.900Z,42.97
2017-09-19T21:01:30.656Z,34.07
2017-09-19T21:04:05.430Z,31.23
2017-09-19T21:06:40.248Z,28.50
2017-09-19T21:09:14.208Z,30.77
2017-09-19T21:11:49.423Z,29.00
2017-09-19T21:14:24.210Z,32.27
2017-09-19T21:16:58.714Z,32.57
2017-09-19T21:19:26.503Z,33.10
2017-09-19T21:21:56.331Z,35.13
2017-09-19T21:24:25.447Z,32.23
2017-09-19T21:26:55.087Z,36.47
2017-09-19T21:29:24.010Z,35.33
2017-09-19T21:31:52.695Z,33.30
2017-09-19T21:34:21.393Z,33.80
2017-09-19T21:36:50.404Z,47.53
2017-09-19T21:39:19.506Z,50.20
2017-09-19T21:41:47.799Z,47.53
2017-09-19T21:44:18.576Z,39.13
2017-09-19T21:46:47.058Z,41.93
2017-09-19T21:49:16.154Z,42.10
2017-09-19T21:51:44.484Z,40.23
2017-09-19T21:54:12.883Z,40.03
2017-09-19T21:56:42.726Z,42.30
2017-09-19T21:59:11.051Z,43.97
2017-09-19T22:01:39.412Z,39.57
2017-09-19T22:04:07.760Z,45.13
2017-09-19T22:06:37.154Z,50.67
2017-09-19T22:09:07.067Z,45.30
2017-09-19T22:11:35.440Z,46.97
2017-09-19T22:14:04.140Z,47.27
2017-09-19T22:16:32.500Z,47.80
2017-09-19T22:19:01.584Z,42.73
2017-09-19T22:21:29.904Z,47.13
2017-09-19T22:23:58.267Z,50.57
2017-09-19T22:26:27.915Z,43.57
2017-09-19T22:28:56.091Z,43.17
2017-09-19T22:31:24.448Z,45.27
2017-09-19T22:33:52.776Z,52.53
2017-09-19T22:36:21.115Z,47.33
2017-09-19T22:38:50.855Z,47.33
2017-09-19T22:41:19.056Z,49.03
2017-09-19T22:43:48.129Z,43.10
2017-09-19T22:46:18.139Z,51.63
2017-09-19T22:48:47.207Z,49.17
2017-09-19T22:51:15.508Z,49.53
2017-09-19T22:53:43.930Z,51.77
2017-09-19T22:56:13.010Z,47.20
2017-09-19T22:58:42.083Z,51.50
2017-09-19T23:01:11.248Z,48.20
2017-09-19T23:03:39.531Z,46.53
2017-09-19T23:06:09.179Z,50.77
2017-09-19T23:08:37.432Z,51.10
2017-09-19T23:11:06.529Z,49.53
2017-09-19T23:13:34.831Z,45.30
2017-09-19T23:16:04.617Z,48.90
2017-09-19T23:18:32.936Z,43.93
2017-09-19T23:21:01.277Z,50.60
2017-09-19T23:23:29.652Z,46.97
2017-09-19T23:25:58.720Z,51.30
2017-09-19T23:28:28.373Z,47.83
2017-09-19T23:30:57.958Z,52.43
2017-09-19T23:33:26.576Z,43.50
2017-09-19T23:35:54.874Z,49.63
2017-09-19T23:38:23.265Z,52.63
2017-09-19T23:40:53.135Z,47.90
2017-09-19T23:43:21.440Z,47.03
2017-09-19T23:45:52.016Z,40.50
2017-09-19T23:48:20.338Z,52.00
2017-09-19T23:50:49.796Z,47.67
2017-09-19T23:53:18.155Z,53.27
2017-09-19T23:55:46.942Z,48.23
2017-09-19T23:58:15.785Z,47.40
